• Join FlightAware (Why Join?)
  • Login
  • US Flag 
09:19PM EST


 

Airport Tracker/Info


-or-


 

Live Flight TrackerFlight Track Log ✈ N872DC ✈ 19-Jul-2013 ✈ KLBX - KBTR

Flight Track Log - Related Links

Times and Time Zones

All times are in EDT time to prevent confusion due to time zone crossing. See the N872DC flight status page for this flight to view local times or setup timezone preferences in your user account.

Time Position Orientation Groundspeed Altitude Reporting Facility
EDT Latitude Longitude Course Direction KTS MPH feet Rate Location/Type
05:12PM 29.0900 -95.4336 96° East 161 185 2,700  Level Houston Center
05:13PM 29.1108 -95.3617 72° East 242 278 5,400 2,940 Climbing Houston Center
05:14PM 29.1331 -95.2850 72° East 285 328 8,400 2,820 Climbing Houston Center
05:15PM 29.1408 -95.2481 76° East 269 310 9,700 3,120 Climbing Houston Center
05:16PM 29.1594 -95.1336 79° East 302 348 13,500 3,360 Climbing Houston Center
05:17PM 29.1675 -95.0339 85° East 314 361 16,700 2,640 Climbing Houston Center
05:18PM 29.1608 -94.9300 94° East 328 377 19,000 2,160 Climbing Houston Center
05:19PM 29.1542 -94.8206 94° East 343 395 21,200 1,920 Climbing Houston Center
05:20PM 29.1475 -94.7053 94° East 361 415 23,000 840 Climbing Houston Center
05:21PM 29.1358 -94.5486 95° East 419 482 23,000  Level Houston Center
05:22PM 29.1281 -94.4136 94° East 428 493 23,000  Level Houston Center
05:23PM 29.1250 -94.2836 92° East 416 479 23,000  Level Houston Center
05:24PM 29.1206 -94.1536 92° East 412 474 23,000  Level Houston Center
05:25PM 29.1147 -94.0233 93° East 412 474 23,000  Level Houston Center
05:26PM 29.1083 -93.8947 93° East 409 471 23,000  Level Houston Center
05:27PM 29.1017 -93.7375 93° East 412 474 23,000  Level Houston Center
05:28PM 29.0978 -93.6094 92° East 408 470 23,000  Level Houston Center
05:29PM 29.0928 -93.4814 93° East 405 466 23,000  Level Houston Center
05:30PM 29.0886 -93.3533 92° East 406 467 23,000  Level Houston Center
05:31PM 29.1450 -93.2414 60° Northeast 419 482 23,000  Level Houston Center
05:32PM 29.2267 -93.1194 52° Northeast 409 471 23,000  Level Houston Center
05:33PM 29.2944 -93.0214 52° Northeast 400 460 23,000  Level Houston Center
05:35PM 29.3619 -92.9214 52° Northeast 398 458 23,000  Level Houston Center
05:36PM 29.4317 -92.8169 53° Northeast 407 468 23,000  Level Houston Center
05:37PM 29.5036 -92.7108 52° Northeast 417 480 23,000  Level Houston Center
05:38PM 29.5872 -92.5844 53° Northeast 417 480 23,000 -300 Level Houston Center
05:39PM 29.6550 -92.4825 53° Northeast 407 468 22,400 -720 Descending Houston Center
05:40PM 29.7236 -92.3814 52° Northeast 402 463 21,600 -780 Descending Houston Center
05:41PM 29.7883 -92.2833 53° Northeast 391 450 20,800 -780 Descending Houston Center
05:42PM 29.8525 -92.1850 53° Northeast 386 444 20,000 -780 Descending Houston Center
05:43PM 29.9167 -92.0900 52° Northeast 379 436 19,200 -900 Descending Houston Center
05:44PM 29.9894 -91.9800 53° Northeast 364 419 18,200 -840 Descending Houston Center
05:45PM 30.0492 -91.8883 53° Northeast 360 414 17,500 -1,020 Descending Houston Center
05:46PM 30.1069 -91.8006 53° Northeast 349 402 16,100 -1,800 Descending Houston Center
05:47PM 30.1697 -91.7061 52° Northeast 352 405 13,900 -2,040 Descending Houston Center
05:48PM 30.2297 -91.6139 53° Northeast 358 412 11,900 -2,040 Descending Houston Center
05:49PM 30.2881 -91.5267 52° Northeast 347 399 9,800 -2,160 Descending Houston Center
05:50PM 30.3411 -91.4353 56° Northeast 286 329 7,400 -2,100 Descending Houston Center
05:51PM 30.3806 -91.3672 56° Northeast 261 300 5,500 -1,800 Descending Houston Center
05:52PM 30.4169 -91.3042 56° Northeast 242 278 3,800 -1,620 Descending Houston Center
05:53PM 30.4553 -91.2447 53° Northeast 236 272 2,200 -1,560 Descending Houston Center
05:55PM 30.5167 -91.1333 65° Northeast  Level FlightAware Approximate
06:02PM 30.5329 -91.1499 65° Northeast  Level Estimated
06:03PM 30.5329 -91.1499 65° Northeast  Level Estimated
06:04PM 30.5329 -91.1499 65° Northeast  Level Estimated